createdAt,value
2019-01-21T00:00:27.967Z,14.80
2019-01-21T00:02:56.430Z,10.73
2019-01-21T00:05:24.959Z,6.17
2019-01-21T00:07:53.467Z,13.33
2019-01-21T00:10:21.921Z,6.13
2019-01-21T00:12:50.462Z,7.45
2019-01-21T00:15:18.969Z,10.53
2019-01-21T00:17:47.429Z,9.00
2019-01-21T00:20:15.959Z,12.73
2019-01-21T00:22:44.460Z,5.70
2019-01-21T00:25:12.919Z,7.70
2019-01-21T00:27:42.684Z,7.93
2019-01-21T00:30:12.513Z,8.53
2019-01-21T00:32:40.980Z,13.57
2019-01-21T00:35:10.278Z,12.70
2019-01-21T00:37:38.875Z,12.63
2019-01-21T00:40:10.592Z,7.75
2019-01-21T00:42:39.131Z,13.90
2019-01-21T00:45:07.884Z,15.93
2019-01-21T00:47:36.353Z,18.20
2019-01-21T00:50:08.041Z,12.77
2019-01-21T00:52:36.538Z,8.40
2019-01-21T00:55:07.835Z,19.77
2019-01-21T00:57:36.292Z,8.20
2019-01-21T01:00:07.966Z,13.83
2019-01-21T01:02:36.434Z,24.67
2019-01-21T01:05:06.720Z,13.30
2019-01-21T01:07:35.223Z,10.90
2019-01-21T01:10:05.160Z,11.27
2019-01-21T01:12:33.626Z,11.90
2019-01-21T01:15:02.137Z,18.27
2019-01-21T01:17:33.389Z,13.47
2019-01-21T01:20:00.782Z,10.90
2019-01-21T01:22:29.282Z,11.30
2019-01-21T01:24:57.739Z,13.00
2019-01-21T01:27:26.213Z,12.67
2019-01-21T01:29:56.160Z,19.90
2019-01-21T01:32:24.623Z,15.60
2019-01-21T01:34:53.088Z,13.43
2019-01-21T01:37:21.612Z,12.00
2019-01-21T01:39:50.071Z,16.50
2019-01-21T01:42:18.525Z,12.03
2019-01-21T01:44:47.117Z,15.98
2019-01-21T01:47:15.570Z,15.33
2019-01-21T01:49:44.108Z,9.83
2019-01-21T01:52:12.722Z,14.63
2019-01-21T01:54:42.209Z,15.60
2019-01-21T01:57:10.746Z,15.53
2019-01-21T01:59:39.323Z,13.65
2019-01-21T02:02:07.782Z,12.83
2019-01-21T02:04:36.326Z,17.45
2019-01-21T02:07:05.369Z,18.40
2019-01-21T02:09:33.876Z,17.00
2019-01-21T02:12:02.298Z,22.20
2019-01-21T02:14:30.785Z,16.20
2019-01-21T02:16:59.330Z,18.95
2019-01-21T02:19:29.746Z,17.10
2019-01-21T02:21:58.794Z,15.53
2019-01-21T02:24:29.691Z,16.70
2019-01-21T02:27:04.050Z,17.70
2019-01-21T02:29:35.789Z,23.90
2019-01-21T02:32:19.243Z,18.05
2019-01-21T02:34:56.557Z,19.12
2019-01-21T02:37:37.191Z,18.25
2019-01-21T02:40:25.290Z,22.77
2019-01-21T02:42:57.068Z,13.75
2019-01-21T02:45:52.927Z,13.53
2019-01-21T02:48:41.296Z,19.82
2019-01-21T02:51:31.135Z,25.35
2019-01-21T02:54:11.930Z,24.70
2019-01-21T02:56:49.182Z,21.73
2019-01-21T02:59:33.037Z,23.42
2019-01-21T03:02:23.043Z,16.35
2019-01-21T03:05:03.846Z,21.35
2019-01-21T03:07:55.115Z,16.25
2019-01-21T03:10:35.954Z,13.45
2019-01-21T03:13:10.671Z,12.80
2019-01-21T03:16:09.121Z,22.17
2019-01-21T03:18:52.416Z,25.37
2019-01-21T03:21:24.185Z,19.25
2019-01-21T03:24:15.319Z,15.38
2019-01-21T03:26:56.338Z,11.88
2019-01-21T03:29:53.712Z,21.33
2019-01-21T03:32:49.053Z,17.52
2019-01-21T03:35:26.280Z,16.50
2019-01-21T03:38:09.350Z,18.05
2019-01-21T03:40:43.914Z,20.48
2019-01-21T03:43:15.686Z,16.75
2019-01-21T03:46:02.269Z,20.85
2019-01-21T03:48:33.895Z,19.50
2019-01-21T03:51:17.424Z,14.93
2019-01-21T03:53:51.909Z,19.23
2019-01-21T03:56:23.988Z,15.98
2019-01-21T03:59:01.938Z,14.58
2019-01-21T04:01:39.696Z,20.12
2019-01-21T04:04:29.239Z,25.82
2019-01-21T04:07:01.335Z,18.42
2019-01-21T04:09:42.351Z,15.90
2019-01-21T04:12:15.022Z,15.03
2019-01-21T04:15:01.997Z,16.20
2019-01-21T04:18:07.135Z,21.42
2019-01-21T04:20:44.385Z,17.98
2019-01-21T04:23:24.872Z,18.32
2019-01-21T04:26:01.384Z,17.62
2019-01-21T04:28:33.123Z,15.95
2019-01-21T04:31:05.128Z,18.60
2019-01-21T04:33:43.608Z,25.25
2019-01-21T04:36:32.082Z,22.40
2019-01-21T04:39:18.861Z,18.80
2019-01-21T04:42:16.112Z,16.57
2019-01-21T04:45:30.531Z,20.85
2019-01-21T04:48:05.229Z,17.00
2019-01-21T04:51:02.230Z,18.00
2019-01-21T04:53:33.977Z,17.98
2019-01-21T04:56:22.244Z,20.85
2019-01-21T04:59:17.464Z,15.83
2019-01-21T05:01:49.231Z,18.48
2019-01-21T05:04:23.862Z,19.27
2019-01-21T05:07:10.583Z,18.05
2019-01-21T05:09:54.160Z,18.07
2019-01-21T05:12:44.039Z,23.38
2019-01-21T05:15:35.743Z,27.45
2019-01-21T05:18:25.504Z,23.62
2019-01-21T05:21:30.594Z,24.23
2019-01-21T05:24:11.409Z,26.37
2019-01-21T05:27:02.888Z,20.92
2019-01-21T05:29:43.472Z,25.75
2019-01-21T05:32:15.191Z,29.07
2019-01-21T05:34:50.010Z,28.83
2019-01-21T05:37:39.783Z,34.00
2019-01-21T05:40:20.791Z,33.02
2019-01-21T05:43:04.176Z,20.90
2019-01-21T05:45:48.082Z,24.77
2019-01-21T05:48:40.736Z,34.58
2019-01-21T05:51:24.558Z,32.48
2019-01-21T05:54:17.316Z,31.37
2019-01-21T05:56:57.732Z,32.00
2019-01-21T05:59:49.046Z,29.12
2019-01-21T06:02:23.715Z,38.83
2019-01-21T06:04:55.584Z,34.13
2019-01-21T06:07:36.065Z,38.75
2019-01-21T06:10:16.669Z,30.70
2019-01-21T06:12:51.157Z,22.60
2019-01-21T06:15:28.657Z,26.12
2019-01-21T06:18:11.740Z,38.23
2019-01-21T06:21:02.987Z,29.72
2019-01-21T06:23:46.825Z,29.70
2019-01-21T06:26:24.716Z,32.25
2019-01-21T06:29:05.682Z,29.15
2019-01-21T06:31:49.333Z,26.12
2019-01-21T06:34:33.271Z,29.98
2019-01-21T06:37:08.777Z,29.48
2019-01-21T06:39:42.982Z,28.38
2019-01-21T06:42:31.466Z,27.85
2019-01-21T06:45:03.223Z,22.37
2019-01-21T06:47:40.841Z,31.15
2019-01-21T06:50:29.423Z,30.50
2019-01-21T06:53:18.555Z,24.52
2019-01-21T06:55:52.775Z,11.60
2019-01-21T06:58:44.186Z,17.27
2019-01-21T07:01:21.714Z,24.05
2019-01-21T07:03:59.084Z,17.60
2019-01-21T07:06:48.569Z,15.78
2019-01-21T07:09:23.257Z,19.10
2019-01-21T07:12:03.592Z,20.60
2019-01-21T07:14:41.024Z,14.18
2019-01-21T07:17:28.523Z,19.90
2019-01-21T07:20:16.709Z,22.32
2019-01-21T07:23:03.429Z,18.40
2019-01-21T07:25:44.158Z,23.95
2019-01-21T07:28:21.436Z,19.95
2019-01-21T07:30:58.474Z,28.52
2019-01-21T07:33:32.821Z,13.78
2019-01-21T07:36:16.309Z,27.80
2019-01-21T07:39:04.025Z,19.67
2019-01-21T07:41:52.368Z,21.17
2019-01-21T07:44:38.936Z,26.37
2019-01-21T07:47:19.625Z,26.13
2019-01-21T07:49:51.383Z,21.95
2019-01-21T07:52:41.386Z,21.35
2019-01-21T07:55:18.866Z,29.50
2019-01-21T07:57:53.418Z,18.07
2019-01-21T08:00:33.810Z,22.22
2019-01-21T08:03:23.613Z,20.55
2019-01-21T08:05:58.155Z,21.35
2019-01-21T08:08:41.812Z,24.12
2019-01-21T08:11:31.889Z,32.85
2019-01-21T08:14:06.434Z,28.52
2019-01-21T08:16:47.021Z,30.77
2019-01-21T08:19:36.760Z,31.48
2019-01-21T08:22:14.498Z,35.23
2019-01-21T08:24:51.701Z,27.60
2019-01-21T08:27:45.907Z,30.50
2019-01-21T08:30:29.538Z,26.62
2019-01-21T08:33:16.076Z,30.30
2019-01-21T08:35:47.810Z,22.82
2019-01-21T08:38:25.363Z,38.90
2019-01-21T08:41:00.876Z,26.77
2019-01-21T08:43:50.823Z,26.35
2019-01-21T08:47:06.438Z,38.85
2019-01-21T08:50:00.703Z,30.37
2019-01-21T08:52:38.255Z,31.77
2019-01-21T08:55:32.007Z,30.02
2019-01-21T08:58:26.605Z,27.98
2019-01-21T09:01:22.427Z,32.78
2019-01-21T09:04:11.807Z,33.85
2019-01-21T09:07:00.762Z,28.12
2019-01-21T09:09:37.113Z,31.27
2019-01-21T09:12:33.134Z,33.98
2019-01-21T09:15:19.776Z,34.18
2019-01-21T09:17:57.699Z,32.33
2019-01-21T09:20:38.485Z,25.80
2019-01-21T09:23:26.995Z,34.18
2019-01-21T09:26:28.952Z,30.70
2019-01-21T09:29:16.993Z,34.40
2019-01-21T09:32:00.650Z,40.88
2019-01-21T09:34:35.102Z,37.30
2019-01-21T09:37:21.402Z,40.75
2019-01-21T09:39:56.699Z,35.05
2019-01-21T09:42:45.225Z,31.85
2019-01-21T09:45:33.529Z,28.62
2019-01-21T09:48:01.054Z,32.98
2019-01-21T09:50:29.783Z,35.68
2019-01-21T09:52:58.548Z,37.83
2019-01-21T09:55:27.104Z,35.68
2019-01-21T09:58:04.925Z,38.08
2019-01-21T10:00:33.489Z,40.63
2019-01-21T10:03:03.858Z,41.08
2019-01-21T10:05:33.772Z,30.70
2019-01-21T10:08:07.897Z,32.28
2019-01-21T10:10:42.598Z,35.20
2019-01-21T10:13:26.065Z,36.70
2019-01-21T10:16:09.765Z,38.13
2019-01-21T10:18:41.396Z,41.93
2019-01-21T10:21:25.283Z,36.70
2019-01-21T10:24:05.705Z,35.83
2019-01-21T10:26:40.347Z,33.63
2019-01-21T10:29:20.912Z,31.33
2019-01-21T10:31:59.475Z,39.63
2019-01-21T10:34:37.015Z,36.30
2019-01-21T10:37:23.731Z,39.77
2019-01-21T10:40:10.300Z,29.27
2019-01-21T10:42:47.783Z,36.50
2019-01-21T10:45:25.912Z,33.50
2019-01-21T10:48:23.456Z,39.60
2019-01-21T10:50:59.035Z,34.43
2019-01-21T10:53:30.709Z,35.83
2019-01-21T10:56:05.032Z,34.23
2019-01-21T10:58:42.439Z,36.00
2019-01-21T11:01:30.544Z,37.63
2019-01-21T11:04:02.227Z,32.07
2019-01-21T11:06:49.112Z,40.90
2019-01-21T11:09:33.260Z,36.83
2019-01-21T11:12:26.112Z,33.13
2019-01-21T11:15:12.596Z,30.27
2019-01-21T11:17:52.980Z,36.87
2019-01-21T11:20:48.923Z,44.57
2019-01-21T11:23:38.447Z,34.90
2019-01-21T11:26:22.037Z,36.27
2019-01-21T11:28:59.554Z,37.20
2019-01-21T11:31:43.238Z,32.30
2019-01-21T11:34:20.823Z,39.37
2019-01-21T11:37:14.656Z,36.03
2019-01-21T11:39:52.216Z,35.03
2019-01-21T11:42:29.297Z,32.27
2019-01-21T11:45:18.926Z,33.20
2019-01-21T11:47:53.806Z,38.77
2019-01-21T11:50:25.438Z,29.37
2019-01-21T11:52:57.082Z,34.60
2019-01-21T11:55:40.851Z,31.80
2019-01-21T11:58:29.814Z,23.93
2019-01-21T12:01:36.372Z,39.13
2019-01-21T12:04:16.588Z,31.97
2019-01-21T12:07:03.032Z,33.37
2019-01-21T12:09:46.806Z,37.13
2019-01-21T12:12:18.480Z,41.07
2019-01-21T12:15:05.037Z,34.53
2019-01-21T12:17:36.700Z,36.90
2019-01-21T12:20:35.743Z,38.53
2019-01-21T12:23:19.037Z,34.03
2019-01-21T12:25:59.723Z,43.63
2019-01-21T12:28:37.230Z,35.33
2019-01-21T12:31:28.443Z,32.20
2019-01-21T12:34:11.990Z,32.97
2019-01-21T12:36:46.203Z,41.40
2019-01-21T12:39:23.615Z,41.07
2019-01-21T12:41:58.177Z,30.60
2019-01-21T12:44:50.800Z,34.20
2019-01-21T12:47:28.135Z,36.77
2019-01-21T12:50:23.785Z,32.60
2019-01-21T12:52:59.415Z,43.10
2019-01-21T12:55:39.884Z,47.93
2019-01-21T12:58:11.522Z,30.17
2019-01-21T13:01:02.532Z,40.77
2019-01-21T13:03:53.739Z,35.50
2019-01-21T13:06:39.773Z,32.73
2019-01-21T13:09:11.424Z,36.83
2019-01-21T13:11:49.029Z,36.13
2019-01-21T13:14:26.524Z,37.10
2019-01-21T13:17:00.679Z,30.23
2019-01-21T13:19:49.744Z,36.47
2019-01-21T13:22:33.491Z,28.67
2019-01-21T13:25:24.591Z,34.87
2019-01-21T13:27:59.029Z,27.73
2019-01-21T13:30:54.385Z,34.03
2019-01-21T13:33:34.588Z,28.73
2019-01-21T13:36:11.967Z,30.17
2019-01-21T13:38:43.660Z,36.87
2019-01-21T13:41:21.293Z,36.83
2019-01-21T13:43:52.960Z,39.30
2019-01-21T13:46:44.444Z,22.43
2019-01-21T13:49:34.277Z,31.30
2019-01-21T13:52:24.275Z,31.17
2019-01-21T13:55:13.823Z,42.27
2019-01-21T13:58:14.187Z,27.50
2019-01-21T14:00:51.437Z,37.77
2019-01-21T14:03:23.082Z,41.10
2019-01-21T14:06:12.909Z,35.30
2019-01-21T14:08:47.258Z,32.60
2019-01-21T14:11:27.392Z,34.17
2019-01-21T14:13:59.021Z,31.87
2019-01-21T14:16:42.337Z,34.40
2019-01-21T14:19:28.837Z,31.17
2019-01-21T14:22:12.366Z,35.93
2019-01-21T14:24:43.994Z,39.00
2019-01-21T14:27:18.809Z,31.03
2019-01-21T14:30:02.178Z,34.57
2019-01-21T14:32:45.622Z,34.00
2019-01-21T14:35:32.050Z,43.47
2019-01-21T14:38:18.232Z,35.67
2019-01-21T14:40:52.710Z,41.47
2019-01-21T14:43:41.181Z,37.80
2019-01-21T14:46:24.784Z,36.63
2019-01-21T14:49:08.292Z,48.03
2019-01-21T14:51:48.892Z,35.43
2019-01-21T14:54:31.053Z,39.07
2019-01-21T14:57:23.990Z,34.60
2019-01-21T15:00:28.870Z,40.47
2019-01-21T15:03:00.506Z,49.73
2019-01-21T15:05:51.884Z,47.60
2019-01-21T15:08:23.590Z,46.80
2019-01-21T15:11:01.208Z,55.00
2019-01-21T15:13:54.101Z,44.53
2019-01-21T15:16:34.881Z,40.57
2019-01-21T15:19:09.522Z,44.10
2019-01-21T15:21:48.612Z,46.20
2019-01-21T15:24:39.636Z,44.10
2019-01-21T15:27:16.984Z,35.40
2019-01-21T15:30:03.771Z,40.97
2019-01-21T15:32:41.030Z,53.87
2019-01-21T15:35:21.518Z,46.37
2019-01-21T15:37:55.843Z,41.10
2019-01-21T15:40:33.297Z,46.07
2019-01-21T15:43:10.751Z,34.20
2019-01-21T15:45:54.468Z,41.80
2019-01-21T15:48:34.925Z,41.73
2019-01-21T15:51:24.676Z,41.33
2019-01-21T15:54:22.308Z,46.90
2019-01-21T15:57:16.443Z,45.87
2019-01-21T16:00:21.345Z,42.43
2019-01-21T16:03:17.073Z,40.67
2019-01-21T16:05:51.230Z,34.50
2019-01-21T16:08:22.637Z,45.23
2019-01-21T16:10:54.291Z,41.77
2019-01-21T16:13:25.979Z,34.60
2019-01-21T16:16:09.482Z,38.80
2019-01-21T16:18:56.165Z,39.80
2019-01-21T16:21:39.862Z,32.53
2019-01-21T16:24:29.848Z,37.60
2019-01-21T16:27:01.506Z,42.67
2019-01-21T16:29:33.142Z,43.23
2019-01-21T16:32:01.773Z,31.63
2019-01-21T16:34:40.299Z,48.70
2019-01-21T16:37:36.339Z,42.20
2019-01-21T16:40:14.006Z,42.50
2019-01-21T16:42:42.523Z,48.17
2019-01-21T16:45:11.027Z,42.90
2019-01-21T16:47:39.501Z,42.87
2019-01-21T16:50:08.740Z,40.40
2019-01-21T16:52:37.203Z,41.60
2019-01-21T16:55:07.693Z,41.53
2019-01-21T16:57:37.215Z,45.10
2019-01-21T17:00:11.588Z,50.00
2019-01-21T17:02:40.063Z,48.30
2019-01-21T17:05:11.198Z,45.53
2019-01-21T17:07:39.668Z,50.37
2019-01-21T17:10:11.085Z,45.40
2019-01-21T17:12:39.585Z,42.87
2019-01-21T17:15:10.960Z,44.40
2019-01-21T17:17:39.428Z,49.90
2019-01-21T17:20:14.022Z,43.87
2019-01-21T17:22:42.493Z,52.07
2019-01-21T17:25:11.214Z,39.50
2019-01-21T17:27:39.731Z,39.70
2019-01-21T17:30:11.371Z,44.57
2019-01-21T17:32:39.844Z,48.00
2019-01-21T17:35:10.492Z,45.07
2019-01-21T17:37:39.023Z,45.40
2019-01-21T17:40:10.893Z,46.90
2019-01-21T17:42:39.450Z,49.97
2019-01-21T17:45:13.902Z,63.53
2019-01-21T17:47:42.360Z,49.13
2019-01-21T17:50:13.204Z,54.17
2019-01-21T17:52:41.731Z,52.73
2019-01-21T17:55:10.884Z,40.33
2019-01-21T17:57:40.125Z,49.80
2019-01-21T18:00:16.197Z,44.47
2019-01-21T18:02:44.709Z,45.83
2019-01-21T18:05:13.164Z,45.47
2019-01-21T18:07:41.702Z,46.07
2019-01-21T18:10:13.139Z,48.30
2019-01-21T18:12:41.717Z,44.10
2019-01-21T18:15:12.020Z,47.60
2019-01-21T18:17:40.518Z,50.57
2019-01-21T18:20:12.100Z,47.47
2019-01-21T18:22:40.644Z,48.10
2019-01-21T18:25:10.484Z,45.00
2019-01-21T18:27:38.951Z,40.20
2019-01-21T18:30:10.578Z,47.10
2019-01-21T18:32:39.238Z,51.33
2019-01-21T18:35:09.934Z,48.77
2019-01-21T18:37:38.464Z,59.13
2019-01-21T18:40:15.302Z,56.77
2019-01-21T18:42:44.417Z,48.47
2019-01-21T18:45:15.812Z,44.57
2019-01-21T18:47:44.315Z,52.30
2019-01-21T18:50:12.847Z,49.47
2019-01-21T18:52:41.309Z,55.70
2019-01-21T18:55:10.376Z,49.20
2019-01-21T18:57:38.834Z,51.57
2019-01-21T19:00:18.059Z,40.27
2019-01-21T19:02:46.479Z,47.93
2019-01-21T19:05:15.009Z,48.40
2019-01-21T19:07:43.515Z,41.93
2019-01-21T19:10:14.114Z,47.83
2019-01-21T19:12:42.581Z,45.03
2019-01-21T19:15:16.821Z,61.03
2019-01-21T19:17:45.284Z,57.67
2019-01-21T19:20:16.089Z,54.47
2019-01-21T19:22:44.661Z,49.77
2019-01-21T19:25:13.298Z,51.77
2019-01-21T19:27:41.769Z,49.17
2019-01-21T19:30:13.469Z,46.33
2019-01-21T19:32:41.932Z,54.70
2019-01-21T19:35:13.418Z,48.63
2019-01-21T19:37:41.974Z,60.63
2019-01-21T19:40:13.606Z,44.73
2019-01-21T19:42:42.083Z,47.90
2019-01-21T19:45:11.930Z,49.43
2019-01-21T19:47:40.555Z,55.17
2019-01-21T19:50:12.160Z,60.43
2019-01-21T19:52:40.769Z,53.67
2019-01-21T19:55:15.237Z,64.33
2019-01-21T19:57:43.720Z,54.47
2019-01-21T20:00:15.642Z,54.93
2019-01-21T20:02:44.572Z,49.40
2019-01-21T20:05:13.307Z,61.97
2019-01-21T20:07:41.864Z,52.87
2019-01-21T20:10:13.756Z,58.23
2019-01-21T20:12:42.214Z,51.77
2019-01-21T20:15:14.074Z,58.17
2019-01-21T20:17:43.326Z,70.17
2019-01-21T20:20:15.175Z,53.50
2019-01-21T20:22:43.784Z,79.03
2019-01-21T20:25:12.712Z,62.97
2019-01-21T20:27:41.177Z,61.50
2019-01-21T20:30:13.098Z,53.27
2019-01-21T20:32:42.439Z,63.60
2019-01-21T20:35:11.046Z,63.57
2019-01-21T20:37:39.548Z,79.60
2019-01-21T20:40:20.024Z,63.27
2019-01-21T20:42:48.526Z,69.50
2019-01-21T20:45:17.224Z,68.70
2019-01-21T20:47:46.028Z,72.50
2019-01-21T20:50:17.283Z,64.83
2019-01-21T20:52:45.740Z,62.70
2019-01-21T20:55:14.647Z,59.13
2019-01-21T20:57:43.142Z,68.20
2019-01-21T21:00:17.673Z,63.77
2019-01-21T21:02:46.412Z,70.60
2019-01-21T21:05:15.402Z,68.77
2019-01-21T21:07:43.860Z,69.57
2019-01-21T21:10:12.744Z,70.47
2019-01-21T21:12:41.338Z,59.60
2019-01-21T21:15:24.645Z,68.40
2019-01-21T21:17:53.136Z,60.50
2019-01-21T21:20:21.599Z,60.10
2019-01-21T21:22:50.056Z,65.03
2019-01-21T21:25:20.153Z,65.07
2019-01-21T21:27:48.626Z,62.87
2019-01-21T21:30:19.896Z,62.83
2019-01-21T21:32:48.401Z,73.53
2019-01-21T21:35:16.844Z,66.00
2019-01-21T21:37:45.320Z,55.40
2019-01-21T21:40:16.626Z,59.67
2019-01-21T21:42:45.244Z,62.07
2019-01-21T21:45:16.039Z,71.83
2019-01-21T21:47:44.545Z,59.57
2019-01-21T21:50:25.083Z,54.40
2019-01-21T21:52:53.569Z,62.90
2019-01-21T21:55:22.035Z,61.53
2019-01-21T21:57:50.657Z,61.70
2019-01-21T22:00:21.677Z,60.57
2019-01-21T22:02:50.696Z,68.57
2019-01-21T22:05:19.629Z,52.20
2019-01-21T22:07:49.070Z,56.13
2019-01-21T22:10:21.476Z,68.50
2019-01-21T22:12:50.144Z,53.80
2019-01-21T22:15:20.691Z,54.20
2019-01-21T22:17:49.162Z,55.37
2019-01-21T22:20:20.236Z,54.77
2019-01-21T22:22:48.803Z,50.10
2019-01-21T22:25:17.661Z,56.20
2019-01-21T22:27:46.124Z,57.10
2019-01-21T22:30:17.341Z,54.30
2019-01-21T22:32:45.814Z,54.07
2019-01-21T22:35:14.345Z,66.97
2019-01-21T22:37:42.932Z,68.60
2019-01-21T22:40:14.507Z,52.67
2019-01-21T22:42:43.037Z,48.70
2019-01-21T22:45:12.767Z,55.77
2019-01-21T22:47:41.373Z,56.60
2019-01-21T22:50:11.975Z,52.57
2019-01-21T22:52:42.049Z,57.10
2019-01-21T22:55:12.674Z,43.60
2019-01-21T22:57:41.137Z,64.70
2019-01-21T23:00:15.713Z,56.50
2019-01-21T23:02:44.464Z,57.47
2019-01-21T23:05:14.072Z,55.13
2019-01-21T23:07:42.566Z,53.53
2019-01-21T23:10:11.037Z,58.97
2019-01-21T23:12:39.499Z,56.87
2019-01-21T23:15:08.960Z,65.97
2019-01-21T23:17:37.426Z,57.53
2019-01-21T23:20:09.129Z,61.13
2019-01-21T23:22:37.642Z,51.03
2019-01-21T23:25:06.839Z,67.83
2019-01-21T23:27:35.297Z,51.97
2019-01-21T23:30:05.442Z,64.27
2019-01-21T23:32:33.913Z,61.03
2019-01-21T23:35:02.373Z,65.30
2019-01-21T23:37:30.859Z,54.43
2019-01-21T23:39:59.309Z,63.57
2019-01-21T23:42:28.057Z,57.57
2019-01-21T23:44:56.550Z,59.77
2019-01-21T23:47:25.187Z,55.40
2019-01-21T23:49:53.651Z,57.10
2019-01-21T23:52:22.167Z,57.37
2019-01-21T23:54:50.635Z,59.47
2019-01-21T23:57:19.102Z,59.13
2019-01-21T23:59:47.592Z,64.80
